Time;durP1;ratioP1;P1;durP2;ratioP2;P2;SDS_P1;SDS_P2;PMS_P1;PMS_P2;Temp;Humidity;BMP_temperature;BMP_pressure;BME280_temperature;BME280_humidity;BME280_pressure;Samples;Min_cycle;Max_cycle;Signal;HPM_P1;HPM_P2
2022/10/01 00:01:42;;;;;;;7.17;6.53;;;11.90;99.90;;;;;;5114368;28;20715;-77
2022/10/01 00:04:11;;;;;;;9.73;7.20;;;11.90;99.90;;;;;;5114214;28;20163;-78
2022/10/01 00:06:36;;;;;;;7.57;6.90;;;12.00;99.90;;;;;;5114190;28;20175;-77
2022/10/01 00:09:04;;;;;;;6.73;6.23;;;12.00;99.90;;;;;;5114342;28;20201;-76
2022/10/01 00:11:30;;;;;;;7.20;6.50;;;12.00;99.90;;;;;;5114338;28;20167;-77
2022/10/01 00:14:00;;;;;;;6.80;6.20;;;12.00;99.90;;;;;;5114206;28;20183;-76
2022/10/01 00:16:28;;;;;;;6.53;5.87;;;12.00;99.90;;;;;;5114270;28;20171;-76
2022/10/01 00:18:56;;;;;;;8.27;5.83;;;12.00;99.90;;;;;;5113954;28;20504;-78
2022/10/01 00:21:25;;;;;;;6.07;5.67;;;12.00;99.90;;;;;;5114085;28;20209;-76
2022/10/01 00:23:56;;;;;;;6.43;5.83;;;12.00;99.90;;;;;;5112831;28;20308;-76
2022/10/01 00:26:26;;;;;;;6.17;5.20;;;12.00;99.90;;;;;;5095380;28;20191;-76
2022/10/01 00:29:06;;;;;;;5.67;5.17;;;12.00;99.90;;;;;;5109160;28;20229;-78
2022/10/01 00:31:31;;;;;;;5.20;4.70;;;12.00;99.90;;;;;;5093608;28;20192;-77
2022/10/01 00:33:58;;;;;;;4.63;4.33;;;12.20;99.90;;;;;;5093227;28;20218;-78
2022/10/01 00:36:25;;;;;;;3.97;3.67;;;12.00;99.90;;;;;;5093587;28;20164;-77
2022/10/01 00:38:51;;;;;;;4.07;3.77;;;12.00;99.90;;;;;;5093354;28;20635;-76
2022/10/01 00:41:18;;;;;;;4.13;3.73;;;12.00;99.90;;;;;;5093840;28;20212;-77
2022/10/01 00:43:53;;;;;;;4.40;3.90;;;12.00;99.90;;;;;;5093316;28;20215;-77
2022/10/01 00:46:24;;;;;;;3.47;3.10;;;12.00;99.90;;;;;;5093518;28;20647;-77
2022/10/01 00:49:00;;;;;;;3.40;3.00;;;12.00;99.90;;;;;;5093186;28;20168;-77
2022/10/01 00:51:29;;;;;;;3.37;3.17;;;12.00;99.90;;;;;;5093177;28;20635;-77
2022/10/01 00:54:01;;;;;;;3.00;2.80;;;11.90;99.90;;;;;;5093392;28;20164;-77
2022/10/01 00:56:27;;;;;;;3.50;3.20;;;12.00;99.90;;;;;;5093557;28;20167;-77
2022/10/01 00:58:54;;;;;;;4.67;3.20;;;11.90;99.90;;;;;;5093310;28;20172;-77
2022/10/01 01:01:22;;;;;;;3.70;2.77;;;11.90;99.90;;;;;;5091844;28;20218;-75
2022/10/01 01:03:49;;;;;;;2.90;2.70;;;12.00;99.90;;;;;;5091590;28;20538;-75
2022/10/01 01:06:15;;;;;;;3.10;2.90;;;12.00;99.90;;;;;;5093327;28;20211;-75
2022/10/01 01:08:41;;;;;;;3.07;2.87;;;12.00;99.90;;;;;;5093460;28;20168;-75
2022/10/01 01:11:39;;;;;;;2.57;2.47;;;12.10;99.90;;;;;;5093332;28;20221;-76
2022/10/01 01:14:28;;;;;;;2.93;2.43;;;12.00;99.90;;;;;;5087365;28;20248;-74
2022/10/01 01:17:00;;;;;;;2.40;2.30;;;12.00;99.90;;;;;;5095394;28;20182;-76
2022/10/01 01:19:28;;;;;;;2.43;2.33;;;12.00;99.90;;;;;;5097403;28;20171;-76
2022/10/01 01:21:59;;;;;;;2.60;2.23;;;12.00;99.90;;;;;;5097125;28;20207;-76
2022/10/01 01:24:44;;;;;;;2.97;2.70;;;12.10;99.90;;;;;;5097417;28;20164;-76
2022/10/01 01:27:25;;;;;;;2.10;2.00;;;12.10;99.90;;;;;;5097270;28;20178;-77
2022/10/01 01:30:03;;;;;;;2.60;2.40;;;12.00;99.90;;;;;;5097332;28;20179;-77
2022/10/01 01:32:37;;;;;;;2.43;2.23;;;12.10;99.90;;;;;;5096771;28;20166;-77
2022/10/01 01:35:07;;;;;;;2.50;2.30;;;12.00;99.90;;;;;;5095838;28;20261;-77
2022/10/01 01:37:41;;;;;;;3.90;2.00;;;12.00;99.90;;;;;;5097274;28;20182;-77
2022/10/01 01:40:10;;;;;;;2.10;2.00;;;12.00;99.90;;;;;;5095490;28;20589;-78
2022/10/01 01:42:39;;;;;;;2.03;1.93;;;12.00;99.90;;;;;;5095853;28;20567;-80
2022/10/01 01:45:09;;;;;;;2.20;2.00;;;12.00;99.90;;;;;;5095691;28;20179;-79
2022/10/01 01:47:37;;;;;;;2.27;2.07;;;12.00;99.90;;;;;;5096251;28;20172;-79
2022/10/01 01:50:07;;;;;;;1.77;1.67;;;12.00;99.90;;;;;;5096717;28;20254;-79
2022/10/01 01:52:33;;;;;;;1.90;1.80;;;12.00;99.90;;;;;;5096529;28;20267;-78
2022/10/01 01:55:04;;;;;;;2.07;1.60;;;12.00;99.90;;;;;;5095418;28;20168;-78
2022/10/01 01:57:32;;;;;;;1.53;1.43;;;12.00;99.90;;;;;;5096653;28;20184;-77
2022/10/01 01:59:58;;;;;;;1.80;1.70;;;12.00;99.90;;;;;;5096563;28;20199;-77
2022/10/01 02:02:32;;;;;;;1.40;1.40;;;12.00;99.90;;;;;;5096008;28;20547;-77
2022/10/01 02:05:06;;;;;;;1.87;1.77;;;12.00;99.90;;;;;;5096369;28;20160;-77
2022/10/01 02:07:47;;;;;;;1.60;1.60;;;12.10;99.90;;;;;;5095215;28;20200;-77
2022/10/01 02:10:31;;;;;;;2.77;1.83;;;12.10;99.90;;;;;;5095064;28;20180;-77
2022/10/01 02:13:08;;;;;;;1.73;1.63;;;12.10;99.90;;;;;;5096120;28;20317;-77
2022/10/01 02:15:52;;;;;;;1.83;1.73;;;12.10;99.90;;;;;;5095988;28;20228;-77
2022/10/01 02:18:43;;;;;;;1.73;1.63;;;12.10;99.90;;;;;;5096508;28;20172;-78
2022/10/01 02:21:33;;;;;;;1.70;1.60;;;12.20;99.90;;;;;;5096095;28;20235;-78
2022/10/01 02:24:25;;;;;;;1.80;1.70;;;12.10;99.90;;;;;;5096015;28;20247;-78
2022/10/01 02:26:52;;;;;;;1.50;1.40;;;12.20;99.90;;;;;;5096094;28;20186;-78
2022/10/01 02:29:21;;;;;;;1.50;1.40;;;12.20;99.90;;;;;;5113233;28;20689;-78
2022/10/01 02:31:48;;;;;;;1.47;1.47;;;12.20;99.90;;;;;;5116426;28;20627;-79
2022/10/01 02:34:15;;;;;;;1.50;1.40;;;12.20;99.90;;;;;;5116380;28;20160;-78
2022/10/01 02:36:44;;;;;;;1.20;1.20;;;12.20;99.90;;;;;;5116378;28;20170;-78
2022/10/01 02:39:13;;;;;;;1.33;1.33;;;12.20;99.90;;;;;;5116400;28;20225;-78
2022/10/01 02:41:41;;;;;;;1.93;1.13;;;12.20;99.90;;;;;;5097746;28;20298;-78
2022/10/01 02:44:22;;;;;;;1.33;1.30;;;12.30;99.90;;;;;;5115796;28;20215;-77
2022/10/01 02:46:50;;;;;;;1.33;1.00;;;12.30;99.90;;;;;;5116277;28;20634;-77
2022/10/01 02:49:16;;;;;;;1.00;1.00;;;12.30;99.90;;;;;;5116216;28;20171;-77
2022/10/01 02:52:02;;;;;;;1.10;1.10;;;12.30;99.90;;;;;;5115794;28;20183;-77
2022/10/01 02:54:52;;;;;;;1.30;1.20;;;12.30;99.90;;;;;;5115874;28;20175;-77
2022/10/01 02:57:26;;;;;;;1.30;1.20;;;12.40;99.90;;;;;;5115784;28;20171;-77
2022/10/01 02:59:57;;;;;;;1.47;1.40;;;12.30;99.90;;;;;;5097096;28;20170;-76
2022/10/01 03:02:28;;;;;;;1.77;1.67;;;12.40;99.90;;;;;;5115876;28;20202;-76
2022/10/01 03:04:57;;;;;;;1.67;1.57;;;12.40;99.90;;;;;;5115445;28;20195;-76
2022/10/01 03:07:28;;;;;;;2.00;1.90;;;12.40;99.90;;;;;;5115702;28;20172;-76
2022/10/01 03:09:54;;;;;;;2.93;1.87;;;12.40;99.90;;;;;;5115718;28;20168;-76
2022/10/01 03:12:21;;;;;;;2.00;1.90;;;12.50;99.90;;;;;;5115370;28;20531;-76
2022/10/01 03:14:47;;;;;;;2.30;2.10;;;12.50;99.90;;;;;;5115284;28;20187;-76
2022/10/01 03:17:13;;;;;;;2.60;2.40;;;12.50;99.90;;;;;;5115228;28;20532;-76
2022/10/01 03:19:40;;;;;;;2.60;2.40;;;12.60;99.90;;;;;;5115291;28;20224;-76
2022/10/01 03:22:06;;;;;;;2.23;2.13;;;12.60;99.90;;;;;;5115261;28;20258;-75
2022/10/01 03:24:32;;;;;;;3.50;2.50;;;12.70;99.90;;;;;;5115287;28;20163;-75
2022/10/01 03:26:58;;;;;;;2.50;2.40;;;12.70;99.90;;;;;;5115255;28;20171;-75
2022/10/01 03:29:24;;;;;;;2.50;2.40;;;12.70;99.90;;;;;;5114594;28;20725;-75
2022/10/01 03:31:50;;;;;;;2.40;2.30;;;12.70;99.90;;;;;;5114716;28;20220;-76
2022/10/01 03:34:16;;;;;;;3.60;2.50;;;12.70;99.90;;;;;;5115078;28;20190;-75
2022/10/01 03:36:42;;;;;;;3.17;2.87;;;12.80;99.90;;;;;;5113727;28;20580;-76
2022/10/01 03:39:08;;;;;;;2.60;2.50;;;12.80;99.90;;;;;;5114423;28;20167;-76
2022/10/01 03:41:33;;;;;;;2.40;2.20;;;12.90;99.90;;;;;;5114602;28;20302;-76
2022/10/01 03:43:59;;;;;;;2.80;2.60;;;12.90;99.90;;;;;;5114316;28;20205;-76
2022/10/01 03:46:25;;;;;;;2.57;2.37;;;12.90;99.90;;;;;;5114713;28;20221;-76
2022/10/01 03:48:51;;;;;;;2.30;2.20;;;12.90;99.90;;;;;;5114626;28;20163;-76
2022/10/01 03:51:19;;;;;;;2.07;1.97;;;13.00;99.90;;;;;;5114853;28;20207;-75
2022/10/01 03:53:46;;;;;;;2.23;2.10;;;13.10;99.90;;;;;;5114567;28;20166;-75
2022/10/01 03:56:12;;;;;;;2.00;1.80;;;13.10;99.90;;;;;;5096265;28;20198;-75
2022/10/01 03:58:37;;;;;;;2.20;2.10;;;13.10;99.90;;;;;;5095775;28;20206;-75
2022/10/01 04:01:03;;;;;;;2.03;1.83;;;13.20;99.90;;;;;;5114306;28;20636;-75
2022/10/01 04:03:29;;;;;;;4.10;2.10;;;13.20;99.90;;;;;;5114406;28;20228;-75
2022/10/01 04:05:55;;;;;;;2.20;1.70;;;13.30;99.90;;;;;;5114226;28;20254;-75
2022/10/01 04:08:22;;;;;;;1.70;1.60;;;13.30;99.90;;;;;;5114041;28;20181;-75
2022/10/01 04:10:48;;;;;;;1.70;1.60;;;13.40;99.90;;;;;;5113928;28;20171;-75
2022/10/01 04:13:14;;;;;;;1.63;1.50;;;13.40;99.90;;;;;;5114228;28;20207;-75
2022/10/01 04:15:39;;;;;;;1.63;1.57;;;13.50;99.90;;;;;;5113689;28;20191;-76
2022/10/01 04:18:06;;;;;;;1.50;1.40;;;13.50;99.90;;;;;;5114222;28;20155;-74
2022/10/01 04:20:33;;;;;;;1.67;1.57;;;13.50;99.90;;;;;;5113871;28;20191;-75
2022/10/01 04:23:00;;;;;;;1.53;1.47;;;13.50;99.90;;;;;;5113980;28;20167;-74
2022/10/01 04:25:26;;;;;;;1.87;1.50;;;13.50;99.90;;;;;;5112276;28;20175;-75
2022/10/01 04:28:00;;;;;;;1.50;1.40;;;13.60;99.90;;;;;;5113773;28;20237;-75
2022/10/01 04:30:29;;;;;;;1.93;1.20;;;13.60;99.90;;;;;;5112741;28;20259;-75
2022/10/01 04:32:57;;;;;;;1.97;1.50;;;13.70;99.90;;;;;;5113767;28;20171;-75
2022/10/01 04:35:23;;;;;;;1.43;1.40;;;13.60;99.90;;;;;;5113995;28;20654;-75
2022/10/01 04:38:03;;;;;;;2.17;1.30;;;13.70;99.90;;;;;;5113987;28;20614;-75
2022/10/01 04:40:31;;;;;;;1.30;1.20;;;13.80;99.90;;;;;;5113090;28;20201;-75
2022/10/01 04:42:56;;;;;;;1.57;1.40;;;13.90;99.90;;;;;;5113456;28;20187;-75
2022/10/01 04:45:22;;;;;;;1.77;1.63;;;13.80;99.90;;;;;;5113683;28;20163;-73
2022/10/01 04:47:54;;;;;;;1.47;1.47;;;13.80;99.90;;;;;;5113594;28;20654;-74
2022/10/01 04:50:21;;;;;;;1.67;1.57;;;13.80;99.90;;;;;;5112325;28;20634;-74
2022/10/01 04:52:46;;;;;;;1.50;1.50;;;13.90;99.90;;;;;;5113872;28;20174;-76
2022/10/01 04:55:13;;;;;;;1.60;1.50;;;13.90;99.90;;;;;;5112973;28;20246;-75
2022/10/01 04:57:39;;;;;;;1.53;1.43;;;13.90;99.90;;;;;;5112893;28;20187;-76
2022/10/01 05:00:11;;;;;;;1.80;1.70;;;14.00;99.90;;;;;;5113344;28;20281;-76
2022/10/01 05:02:42;;;;;;;1.60;1.50;;;14.00;99.90;;;;;;5113777;28;20207;-76
2022/10/01 05:05:08;;;;;;;1.80;1.70;;;14.00;99.90;;;;;;5113590;28;20241;-77
2022/10/01 05:07:35;;;;;;;1.73;1.63;;;14.00;99.90;;;;;;5113454;28;20643;-75
2022/10/01 05:10:00;;;;;;;1.70;1.60;;;14.10;99.90;;;;;;5112919;28;20246;-75
2022/10/01 05:12:27;;;;;;;1.93;1.60;;;14.10;99.90;;;;;;5113026;28;20254;-77
2022/10/01 05:14:54;;;;;;;1.97;1.50;;;14.10;99.90;;;;;;5113533;28;20174;-76
2022/10/01 05:17:20;;;;;;;1.77;1.67;;;14.10;99.90;;;;;;5113505;28;20174;-77
2022/10/01 05:19:46;;;;;;;1.53;1.43;;;14.10;99.90;;;;;;5111978;28;20221;-75
2022/10/01 05:22:12;;;;;;;1.70;1.60;;;14.20;99.90;;;;;;5112814;28;20296;-75
2022/10/01 05:24:39;;;;;;;1.70;1.60;;;14.20;99.90;;;;;;5112740;28;20201;-75
2022/10/01 05:27:08;;;;;;;1.80;1.43;;;14.20;99.90;;;;;;5113307;28;20179;-75
2022/10/01 05:29:34;;;;;;;1.80;1.50;;;14.20;99.90;;;;;;5112950;28;20548;-75
2022/10/01 05:32:00;;;;;;;2.23;1.60;;;14.30;99.90;;;;;;5113497;28;20246;-74
2022/10/01 05:34:25;;;;;;;2.60;1.30;;;14.30;99.90;;;;;;5113229;28;20160;-76
2022/10/01 05:36:51;;;;;;;3.67;1.60;;;14.20;99.90;;;;;;5112844;28;20627;-76
2022/10/01 05:39:16;;;;;;;1.97;1.30;;;14.20;99.90;;;;;;5112664;28;20174;-74
2022/10/01 05:41:42;;;;;;;4.20;1.50;;;14.20;99.90;;;;;;5112879;28;20207;-74
2022/10/01 05:44:07;;;;;;;3.10;1.50;;;14.20;99.90;;;;;;5094849;28;20183;-76
2022/10/01 05:46:33;;;;;;;2.23;1.50;;;14.20;99.90;;;;;;5112873;28;20236;-75
2022/10/01 05:48:59;;;;;;;1.90;1.60;;;14.20;99.90;;;;;;5112910;28;20168;-76
2022/10/01 05:51:28;;;;;;;2.67;1.60;;;14.20;99.90;;;;;;5110876;28;20179;-75
2022/10/01 05:53:54;;;;;;;1.73;1.63;;;14.20;99.90;;;;;;5112547;28;20167;-76
2022/10/01 05:56:23;;;;;;;2.50;1.70;;;14.30;99.90;;;;;;5112880;28;20250;-75
2022/10/01 05:58:48;;;;;;;1.70;1.50;;;14.30;99.90;;;;;;5112504;28;20173;-75
2022/10/01 06:01:14;;;;;;;1.67;1.57;;;14.30;99.90;;;;;;5112863;28;20618;-76
2022/10/01 06:03:39;;;;;;;2.33;1.80;;;14.30;99.90;;;;;;5116319;28;20171;-76
2022/10/01 06:06:05;;;;;;;2.47;1.80;;;14.40;99.90;;;;;;5116424;28;20204;-76
2022/10/01 06:08:33;;;;;;;2.47;2.00;;;14.40;99.90;;;;;;5098011;28;20627;-76
2022/10/01 06:11:00;;;;;;;3.17;1.90;;;14.40;99.90;;;;;;5116187;28;20557;-76
2022/10/01 06:13:27;;;;;;;4.70;1.90;;;14.50;99.90;;;;;;5115955;28;20179;-76
2022/10/01 06:15:52;;;;;;;3.63;1.90;;;14.50;99.90;;;;;;5116709;28;20164;-76
2022/10/01 06:18:18;;;;;;;2.67;1.80;;;14.50;99.90;;;;;;5116072;28;20635;-76
2022/10/01 06:20:44;;;;;;;2.63;1.90;;;14.50;99.90;;;;;;5116378;28;20585;-76
2022/10/01 06:23:12;;;;;;;3.53;2.00;;;14.50;99.90;;;;;;5115893;28;20163;-77
2022/10/01 06:25:39;;;;;;;4.07;2.50;;;14.50;99.90;;;;;;5116029;28;20171;-77
2022/10/01 06:28:06;;;;;;;2.20;2.00;;;14.50;99.90;;;;;;5115600;28;20218;-76
2022/10/01 06:30:35;;;;;;;4.40;2.50;;;14.40;99.90;;;;;;5115378;28;20241;-77
2022/10/01 06:33:19;;;;;;;2.47;2.27;;;14.40;99.90;;;;;;5115973;28;20268;-76
2022/10/01 06:35:51;;;;;;;4.00;2.70;;;14.30;99.90;;;;;;5115832;28;20171;-76
2022/10/01 06:38:19;;;;;;;2.87;2.57;;;14.40;99.90;;;;;;5114938;28;20171;-76
2022/10/01 06:40:57;;;;;;;2.50;2.30;;;14.30;99.90;;;;;;5115183;28;20209;-75
2022/10/01 06:43:24;;;;;;;4.00;3.00;;;14.40;99.90;;;;;;5115980;28;20769;-75
2022/10/01 06:45:50;;;;;;;5.83;3.10;;;14.40;99.90;;;;;;5115503;28;20225;-76
2022/10/01 06:48:17;;;;;;;6.60;3.33;;;14.50;99.90;;;;;;5115286;28;20626;-77
2022/10/01 06:50:45;;;;;;;4.57;3.70;;;14.50;99.90;;;;;;5113581;28;20584;-75
2022/10/01 06:53:11;;;;;;;8.17;4.20;;;14.50;99.90;;;;;;5115631;28;20168;-76
2022/10/01 06:55:38;;;;;;;8.37;4.57;;;14.60;99.90;;;;;;5115636;28;20292;-77
2022/10/01 06:58:06;;;;;;;8.67;4.87;;;14.70;99.90;;;;;;5114941;28;20662;-77
2022/10/01 07:00:34;;;;;;;5.23;4.40;;;14.90;99.90;;;;;;5114939;28;20199;-77
2022/10/01 07:03:00;;;;;;;4.27;3.87;;;14.90;99.90;;;;;;5115216;28;20172;-77
2022/10/01 07:05:29;;;;;;;8.60;3.70;;;15.10;99.90;;;;;;5114562;28;20677;-76
2022/10/01 07:07:55;;;;;;;6.30;4.00;;;15.20;99.90;;;;;;5114387;28;20213;-77
2022/10/01 07:10:22;;;;;;;5.27;3.80;;;15.60;99.90;;;;;;5115177;28;20184;-77
2022/10/01 07:12:48;;;;;;;6.03;3.70;;;15.80;99.90;;;;;;5114606;28;20183;-77
2022/10/01 07:15:16;;;;;;;5.37;3.80;;;15.70;99.90;;;;;;5113256;28;20561;-76
2022/10/01 07:17:47;;;;;;;6.77;3.60;;;15.70;99.90;;;;;;5115155;28;20223;-76
2022/10/01 07:20:16;;;;;;;5.43;3.80;;;15.70;99.90;;;;;;5114860;28;20769;-76
2022/10/01 07:22:45;;;;;;;8.27;3.93;;;15.70;99.90;;;;;;5114751;28;20185;-76
2022/10/01 07:25:11;;;;;;;9.20;4.40;;;15.60;99.90;;;;;;5114301;28;20168;-75
2022/10/01 07:27:37;;;;;;;8.10;3.97;;;15.70;99.90;;;;;;5114490;28;20207;-75
2022/10/01 07:30:04;;;;;;;6.97;4.40;;;15.80;99.90;;;;;;5097018;28;20649;-74
2022/10/01 07:32:30;;;;;;;9.20;4.70;;;15.80;99.90;;;;;;5114194;28;20167;-76
2022/10/01 07:34:57;;;;;;;10.60;4.10;;;16.00;99.90;;;;;;5114042;28;20257;-77
2022/10/01 07:37:23;;;;;;;6.20;4.07;;;16.20;99.90;;;;;;5114730;28;20324;-75
2022/10/01 07:39:48;;;;;;;9.63;4.10;;;16.30;99.90;;;;;;5113990;28;20638;-76
2022/10/01 07:42:14;;;;;;;9.37;3.83;;;16.30;99.90;;;;;;5114375;28;20257;-76
2022/10/01 07:44:39;;;;;;;8.67;4.10;;;16.30;99.90;;;;;;5114340;28;20197;-76
2022/10/01 07:47:05;;;;;;;8.30;3.80;;;16.70;99.90;;;;;;5114049;28;20205;-76
2022/10/01 07:49:31;;;;;;;7.23;3.70;;;17.00;99.90;;;;;;5114093;28;20163;-77
2022/10/01 07:51:57;;;;;;;10.07;3.50;;;16.90;99.90;;;;;;5112973;28;20183;-76
2022/10/01 07:54:24;;;;;;;12.13;4.20;;;17.00;99.90;;;;;;5095624;28;20634;-76
2022/10/01 07:56:54;;;;;;;8.20;3.60;;;17.00;99.90;;;;;;5114222;28;20178;-76
2022/10/01 07:59:21;;;;;;;10.80;3.50;;;17.20;99.90;;;;;;5113635;28;20222;-75
2022/10/01 08:01:53;;;;;;;12.33;3.23;;;17.20;99.90;;;;;;5114156;28;20256;-76
2022/10/01 08:07:05;;;;;;;9.43;2.97;;;18.80;99.90;;;;;;5114566;28;20177;-82
2022/10/01 08:09:31;;;;;;;9.20;3.15;;;20.00;99.90;;;;;;5129713;28;20175;-80
2022/10/01 08:11:56;;;;;;;12.02;3.10;;;20.30;99.90;;;;;;5106171;28;20209;-78
2022/10/01 08:14:22;;;;;;;7.65;2.78;;;20.00;99.90;;;;;;5114420;28;20174;-79
2022/10/01 08:16:48;;;;;;;12.80;3.20;;;19.70;99.90;;;;;;5113998;28;20178;-79
2022/10/01 08:19:14;;;;;;;10.00;3.28;;;19.60;99.90;;;;;;5117527;28;20167;-78
2022/10/01 08:21:41;;;;;;;10.02;2.95;;;19.20;99.90;;;;;;5125188;28;20274;-78
2022/10/01 08:24:07;;;;;;;8.82;3.45;;;19.10;99.90;;;;;;5127153;28;20634;-78
2022/10/01 08:26:33;;;;;;;13.88;3.67;;;19.00;99.90;;;;;;5124553;28;20175;-79
2022/10/01 08:29:01;;;;;;;14.93;3.80;;;18.90;99.90;;;;;;5122976;28;20741;-79
2022/10/01 08:31:27;;;;;;;5.65;3.35;;;18.80;99.90;;;;;;5125779;28;20174;-80
2022/10/01 08:33:53;;;;;;;10.67;4.03;;;18.40;99.90;;;;;;5117760;28;20170;-78
2022/10/01 08:36:21;;;;;;;12.40;4.67;;;18.40;99.90;;;;;;5115408;28;20166;-79
2022/10/01 08:38:48;;;;;;;9.87;3.67;;;18.50;99.90;;;;;;5113817;28;20167;-78
2022/10/01 08:41:35;;;;;;;14.73;3.72;;;18.80;99.90;;;;;;5113222;28;20246;-78
2022/10/01 08:44:03;;;;;;;13.25;3.85;;;19.00;99.90;;;;;;5113439;28;20258;-78
2022/10/01 08:46:33;;;;;;;13.88;3.75;;;18.70;99.90;;;;;;5113049;28;20190;-78
2022/10/01 08:49:26;;;;;;;12.60;4.07;;;18.60;99.90;;;;;;5116485;28;20159;-77
2022/10/01 08:52:02;;;;;;;10.85;3.58;;;19.00;99.90;;;;;;5124310;28;20175;-77
2022/10/01 08:54:33;;;;;;;11.35;3.38;;;19.80;99.90;;;;;;5113869;28;20518;-78
2022/10/01 08:57:02;;;;;;;9.77;3.70;;;20.40;99.90;;;;;;5112851;28;20167;-75
2022/10/01 08:59:42;;;;;;;10.10;3.22;;;21.30;99.90;;;;;;5113177;28;20195;-76
2022/10/01 09:02:21;;;;;;;11.43;3.55;;;22.50;99.90;;;;;;5113058;28;20206;-76
2022/10/01 09:04:49;;;;;;;11.30;3.08;;;22.80;99.90;;;;;;5111803;28;20182;-76
2022/10/01 09:07:35;;;;;;;8.25;3.53;;;22.80;99.90;;;;;;5094181;28;20163;-76
2022/10/01 09:10:31;;;;;;;9.18;3.53;;;23.80;99.90;;;;;;5112472;28;20175;-77
2022/10/01 09:13:25;;;;;;;8.95;3.40;;;23.30;99.90;;;;;;5112974;28;20171;-76
2022/10/01 09:16:24;;;;;;;10.55;3.70;;;22.60;99.90;;;;;;5112849;28;20168;-75
2022/10/01 09:19:12;;;;;;;9.75;3.40;;;22.10;99.90;;;;;;5113335;28;20166;-76
2022/10/01 09:22:00;;;;;;;8.30;3.75;;;22.90;99.90;;;;;;5112723;28;20678;-74
2022/10/01 09:24:30;;;;;;;8.18;3.60;;;22.50;99.90;;;;;;5113065;28;20175;-73
2022/10/01 09:26:56;;;;;;;8.82;3.38;;;22.40;99.90;;;;;;5112900;28;20254;-75
2022/10/01 09:29:39;;;;;;;7.10;3.90;;;22.80;99.90;;;;;;5112303;28;20253;-74
2022/10/01 09:32:05;;;;;;;8.77;3.80;;;22.30;99.90;;;;;;5112729;28;20178;-75
2022/10/01 09:34:36;;;;;;;8.52;3.92;;;23.20;99.90;;;;;;5112470;28;20164;-76
2022/10/01 09:37:17;;;;;;;8.93;3.97;;;24.00;99.80;;;;;;5114178;28;20200;-75
2022/10/01 09:40:01;;;;;;;7.72;3.30;;;24.10;99.30;;;;;;5117016;28;20171;-74
2022/10/01 09:42:28;;;;;;;8.30;3.50;;;24.70;98.40;;;;;;5116508;28;20300;-76
2022/10/01 09:44:58;;;;;;;6.57;3.30;;;23.80;98.60;;;;;;5115796;28;20601;-75
2022/10/01 09:47:24;;;;;;;5.65;3.15;;;23.80;99.80;;;;;;5116854;28;20179;-75
2022/10/01 09:49:50;;;;;;;8.60;3.20;;;23.20;99.90;;;;;;5116273;28;20534;-76
2022/10/01 09:52:27;;;;;;;10.25;3.55;;;23.00;99.90;;;;;;5116725;28;20172;-75
2022/10/01 09:54:59;;;;;;;7.60;2.88;;;23.00;99.90;;;;;;5116638;28;20279;-75
2022/10/01 09:57:32;;;;;;;8.65;3.58;;;23.30;98.50;;;;;;5116384;28;20246;-76
2022/10/01 10:00:09;;;;;;;8.05;2.95;;;23.80;98.20;;;;;;5097409;28;20197;-76
2022/10/01 10:02:46;;;;;;;8.02;2.97;;;23.70;97.70;;;;;;5116143;28;20174;-76
2022/10/01 10:05:16;;;;;;;9.00;3.50;;;24.10;96.70;;;;;;5115983;28;20197;-76
2022/10/01 10:07:53;;;;;;;9.05;3.28;;;23.80;96.60;;;;;;5116269;28;20167;-76
2022/10/01 10:10:27;;;;;;;9.25;3.47;;;24.50;95.80;;;;;;5116060;28;20267;-76
2022/10/01 10:13:39;;;;;;;7.72;3.53;;;24.90;94.90;;;;;;5115823;28;20174;-74
2022/10/01 10:16:13;;;;;;;7.15;3.25;;;24.40;95.20;;;;;;5033092;28;20182;-75
2022/10/01 10:18:39;;;;;;;6.68;2.83;;;24.80;93.30;;;;;;5033746;28;20181;-76
2022/10/01 10:21:13;;;;;;;8.75;3.70;;;24.30;94.70;;;;;;5033058;28;20667;-75
2022/10/01 10:23:57;;;;;;;6.75;3.20;;;24.80;96.10;;;;;;5033445;28;20178;-75
2022/10/01 10:26:39;;;;;;;8.45;3.25;;;24.70;95.20;;;;;;5033190;28;20265;-76
2022/10/01 10:29:23;;;;;;;5.20;2.97;;;24.10;93.60;;;;;;5032492;28;20241;-74
2022/10/01 10:31:50;;;;;;;9.68;3.95;;;24.70;95.20;;;;;;5033075;28;20261;-76
2022/10/01 10:34:30;;;;;;;9.40;3.58;;;24.70;93.30;;;;;;5032508;28;20206;-74
2022/10/01 10:36:59;;;;;;;9.50;3.65;;;25.50;92.50;;;;;;5033363;28;20181;-75
2022/10/01 10:39:30;;;;;;;8.82;4.00;;;25.10;91.70;;;;;;5033161;28;20185;-74
2022/10/01 10:41:58;;;;;;;13.02;4.00;;;24.20;93.80;;;;;;5032620;28;20259;-73
2022/10/01 10:44:29;;;;;;;8.75;3.60;;;24.00;93.80;;;;;;5032491;28;20242;-75
2022/10/01 10:46:59;;;;;;;8.70;3.80;;;23.70;93.50;;;;;;5032892;28;20225;-75
2022/10/01 10:49:28;;;;;;;9.32;3.67;;;23.20;95.20;;;;;;5032990;28;20181;-75
2022/10/01 10:51:55;;;;;;;7.68;3.83;;;23.10;94.90;;;;;;5033210;28;20178;-76
2022/10/01 10:54:30;;;;;;;8.70;3.22;;;23.50;94.90;;;;;;5115086;28;20171;-74
2022/10/01 10:57:15;;;;;;;8.48;3.47;;;23.70;93.90;;;;;;5114885;28;20352;-75
2022/10/01 10:59:40;;;;;;;6.43;3.10;;;24.10;94.00;;;;;;5114562;28;20159;-75
2022/10/01 11:02:15;;;;;;;5.47;2.95;;;24.30;92.70;;;;;;5114828;28;20678;-75
2022/10/01 11:04:43;;;;;;;8.05;3.17;;;24.60;92.50;;;;;;5114843;28;20178;-73
2022/10/01 11:07:12;;;;;;;6.90;3.17;;;24.50;92.70;;;;;;5115121;28;20180;-75
2022/10/01 11:09:49;;;;;;;8.60;2.55;;;24.40;92.80;;;;;;5115035;28;20211;-76
2022/10/01 11:12:45;;;;;;;7.28;2.42;;;24.40;92.80;;;;;;5114261;28;20182;-75
2022/10/01 11:15:47;;;;;;;7.88;2.90;;;24.40;91.00;;;;;;5114035;28;20167;-75
2022/10/01 11:18:34;;;;;;;6.45;2.28;;;24.50;90.60;;;;;;5096121;28;20186;-75
2022/10/01 11:21:33;;;;;;;6.38;3.33;;;24.50;91.20;;;;;;5115092;28;20207;-74
2022/10/01 11:24:18;;;;;;;5.50;2.05;;;25.30;88.30;;;;;;5114506;28;20176;-76
2022/10/01 11:26:56;;;;;;;7.25;2.85;;;24.30;86.70;;;;;;5095678;28;20224;-75
2022/10/01 11:30:00;;;;;;;8.52;2.58;;;24.20;89.70;;;;;;5114703;28;20230;-76
2022/10/01 11:32:25;;;;;;;5.45;2.53;;;23.80;88.90;;;;;;5114786;28;20272;-75
2022/10/01 11:35:00;;;;;;;6.40;2.20;;;23.30;90.10;;;;;;5114491;28;20167;-75
2022/10/01 11:37:47;;;;;;;4.72;2.22;;;22.50;92.20;;;;;;5114073;28;20162;-76
2022/10/01 11:40:39;;;;;;;6.75;2.13;;;22.10;93.00;;;;;;5113978;28;20166;-75
2022/10/01 11:43:16;;;;;;;8.55;2.30;;;22.60;93.60;;;;;;5070080;28;20202;-76
2022/10/01 11:45:53;;;;;;;6.47;2.22;;;23.00;93.00;;;;;;5114320;28;20178;-75
2022/10/01 11:48:28;;;;;;;9.13;2.53;;;23.10;92.50;;;;;;5113892;28;20170;-75
2022/10/01 11:51:00;;;;;;;8.70;2.65;;;23.10;91.90;;;;;;5113826;28;20167;-77
2022/10/01 11:53:32;;;;;;;6.55;2.55;;;23.00;92.40;;;;;;5114192;28;20262;-76
2022/10/01 11:59:44;;;;;;;6.57;2.10;;;22.60;92.80;;;;;;5106057;28;20184;-74
2022/10/01 12:02:45;;;;;;;4.85;2.20;;;22.20;92.50;;;;;;5113638;28;20207;-76
2022/10/01 12:05:25;;;;;;;4.15;2.08;;;22.30;93.00;;;;;;5011534;28;20231;-76
2022/10/01 12:07:57;;;;;;;7.57;2.22;;;22.30;91.90;;;;;;5011870;28;20201;-76
2022/10/01 12:10:46;;;;;;;6.82;2.30;;;21.70;92.80;;;;;;5010990;28;20170;-76
2022/10/01 12:13:26;;;;;;;9.00;2.85;;;21.90;94.30;;;;;;5010858;28;20270;-76
2022/10/01 12:16:05;;;;;;;12.15;2.70;;;21.90;94.10;;;;;;5011652;28;20297;-76
2022/10/01 12:18:49;;;;;;;9.93;2.63;;;22.10;94.80;;;;;;5011447;28;20253;-76
2022/10/01 12:21:33;;;;;;;8.52;2.58;;;22.60;94.20;;;;;;5009940;28;20221;-76
2022/10/01 12:24:04;;;;;;;5.68;2.10;;;22.70;94.00;;;;;;5010838;28;20248;-75
2022/10/01 12:26:45;;;;;;;10.50;2.25;;;22.00;92.10;;;;;;5011017;28;20270;-76
2022/10/01 12:29:49;;;;;;;7.63;2.22;;;21.60;94.20;;;;;;5010673;28;20225;-76
2022/10/01 12:32:41;;;;;;;6.15;2.35;;;21.50;94.10;;;;;;5009862;28;20193;-75
2022/10/01 12:35:21;;;;;;;5.70;2.30;;;21.60;94.20;;;;;;5010644;28;20555;-73
2022/10/01 12:38:01;;;;;;;6.47;2.30;;;21.20;94.90;;;;;;5011066;28;20174;-74
2022/10/01 12:40:51;;;;;;;7.10;2.10;;;21.00;95.20;;;;;;5091839;28;20240;-73
2022/10/01 12:44:03;;;;;;;6.70;2.50;;;20.80;96.60;;;;;;5092662;28;20180;-75
2022/10/01 12:46:33;;;;;;;12.40;3.08;;;20.60;97.30;;;;;;5093417;28;20217;-72
2022/10/01 12:49:27;;;;;;;10.38;3.17;;;20.70;99.00;;;;;;5092198;28;20175;-73
2022/10/01 12:52:10;;;;;;;7.28;2.70;;;20.70;98.90;;;;;;5092267;28;20167;-73
2022/10/01 12:54:51;;;;;;;9.48;3.22;;;20.50;99.90;;;;;;5091510;28;20167;-73
2022/10/01 12:57:31;;;;;;;12.43;3.30;;;20.40;99.50;;;;;;5092548;28;20171;-75
2022/10/01 13:00:12;;;;;;;8.95;3.17;;;20.40;99.90;;;;;;5092994;28;20164;-74
2022/10/01 13:03:09;;;;;;;9.07;3.35;;;20.40;99.30;;;;;;5092157;28;20249;-73
2022/10/01 13:05:54;;;;;;;7.28;2.88;;;20.40;99.80;;;;;;5092281;28;20704;-72
2022/10/01 13:08:38;;;;;;;8.07;2.72;;;20.20;99.80;;;;;;5091891;28;20259;-73
2022/10/01 13:11:19;;;;;;;7.93;2.53;;;20.00;99.90;;;;;;5092030;28;20247;-74
2022/10/01 13:13:51;;;;;;;9.93;3.03;;;20.00;99.80;;;;;;5096606;28;20182;-73
2022/10/01 13:16:23;;;;;;;12.52;3.22;;;20.00;99.90;;;;;;5096324;28;20221;-73
2022/10/01 13:18:49;;;;;;;9.30;2.83;;;19.90;99.90;;;;;;5097049;28;20191;-74